Time;durP1;ratioP1;P1;durP2;ratioP2;P2;SDS_P1;SDS_P2;PMS_P1;PMS_P2;Temp;Humidity;BMP_temperature;BMP_pressure;BME280_temperature;BME280_humidity;BME280_pressure;Samples;Min_cycle;Max_cycle;Signal;HPM_P1;HPM_P2
2021/09/06 00:01:43;;;;;;;9.07;8.27;;;22.40;37.20;;;;;;4956121;28;20721;-69
2021/09/06 00:04:08;;;;;;;7.77;7.17;;;22.40;37.20;;;;;;4956229;28;20182;-69
2021/09/06 00:06:38;;;;;;;7.47;6.87;;;22.40;38.00;;;;;;4956231;28;20179;-68
2021/09/06 00:09:04;;;;;;;8.47;7.70;;;22.40;37.30;;;;;;4955922;28;20254;-69
2021/09/06 00:11:30;;;;;;;8.27;7.60;;;22.40;37.30;;;;;;4956330;28;20535;-69
2021/09/06 00:13:55;;;;;;;7.30;6.77;;;22.40;37.30;;;;;;4956006;28;20183;-70
2021/09/06 00:16:21;;;;;;;7.47;6.80;;;22.40;37.20;;;;;;4956046;28;20202;-69
2021/09/06 00:18:46;;;;;;;8.43;7.73;;;22.40;37.30;;;;;;4955684;28;20182;-70
2021/09/06 00:21:12;;;;;;;9.47;7.40;;;22.40;37.20;;;;;;4956134;28;20202;-69
2021/09/06 00:23:38;;;;;;;7.70;7.00;;;22.40;37.30;;;;;;4955860;28;20171;-70
2021/09/06 00:26:04;;;;;;;7.90;7.20;;;22.30;37.10;;;;;;4955841;28;20995;-70
2021/09/06 00:28:30;;;;;;;8.20;7.40;;;22.40;37.30;;;;;;4955649;28;20227;-70
2021/09/06 00:30:56;;;;;;;8.00;7.30;;;22.40;37.20;;;;;;4955736;28;20435;-70
2021/09/06 00:33:22;;;;;;;7.30;6.70;;;22.40;37.20;;;;;;4955648;28;20599;-70
2021/09/06 00:35:48;;;;;;;7.43;6.83;;;22.40;37.30;;;;;;4955569;28;20554;-70
2021/09/06 00:38:18;;;;;;;8.03;7.33;;;22.30;37.20;;;;;;4955529;29;20649;-70
2021/09/06 00:40:45;;;;;;;8.03;7.33;;;22.40;37.20;;;;;;4955693;28;20467;-69
2021/09/06 00:43:11;;;;;;;7.50;7.00;;;22.30;37.20;;;;;;4955574;28;20408;-69
2021/09/06 00:45:37;;;;;;;8.00;7.40;;;22.30;37.20;;;;;;4955513;28;20419;-69
2021/09/06 00:48:03;;;;;;;7.83;7.23;;;22.30;37.20;;;;;;4955392;28;20525;-70
2021/09/06 00:50:29;;;;;;;7.97;7.37;;;22.30;37.20;;;;;;4955130;28;20439;-69
2021/09/06 00:52:55;;;;;;;8.43;7.70;;;22.30;37.20;;;;;;4955286;28;20489;-70
2021/09/06 00:55:21;;;;;;;7.53;6.83;;;22.30;37.10;;;;;;4955320;28;20619;-70
2021/09/06 00:57:47;;;;;;;8.20;7.50;;;22.30;37.20;;;;;;4955252;28;20202;-70
2021/09/06 01:00:14;;;;;;;7.40;6.87;;;22.30;37.10;;;;;;4954839;28;20929;-70
2021/09/06 01:02:39;;;;;;;8.23;7.53;;;22.30;37.20;;;;;;4955226;28;20195;-69
2021/09/06 01:05:05;;;;;;;7.40;6.80;;;22.30;37.20;;;;;;4954755;28;20403;-70
2021/09/06 01:07:31;;;;;;;7.03;6.53;;;22.30;37.10;;;;;;4955116;28;20247;-70
2021/09/06 01:10:04;;;;;;;7.67;7.07;;;22.30;37.10;;;;;;4954755;28;20523;-68
2021/09/06 01:12:29;;;;;;;7.83;7.13;;;22.30;37.10;;;;;;4955005;28;20190;-69
2021/09/06 01:14:55;;;;;;;7.37;6.63;;;22.30;37.10;;;;;;4954831;28;20415;-70
2021/09/06 01:17:20;;;;;;;7.57;6.97;;;22.30;37.10;;;;;;4954868;28;20210;-69
2021/09/06 01:19:46;;;;;;;7.37;6.67;;;22.30;37.10;;;;;;4954495;28;20183;-69
2021/09/06 01:22:11;;;;;;;6.70;6.10;;;22.30;37.20;;;;;;4954932;28;20179;-70
2021/09/06 01:24:37;;;;;;;6.93;6.43;;;22.30;37.10;;;;;;4954875;28;20552;-70
2021/09/06 01:27:03;;;;;;;7.40;6.80;;;22.30;37.10;;;;;;4954822;28;20183;-69
2021/09/06 01:29:28;;;;;;;7.27;6.67;;;22.20;37.10;;;;;;4954381;28;20238;-69
2021/09/06 01:31:54;;;;;;;7.17;6.63;;;22.30;37.20;;;;;;4954875;28;20195;-70
2021/09/06 01:34:20;;;;;;;7.27;6.67;;;22.20;37.10;;;;;;4954579;28;20188;-71
2021/09/06 01:36:46;;;;;;;8.00;7.40;;;22.30;37.20;;;;;;4954639;28;20202;-69
2021/09/06 01:39:11;;;;;;;8.07;7.47;;;22.30;37.20;;;;;;4954271;28;20175;-69
2021/09/06 01:41:37;;;;;;;8.53;7.83;;;22.20;37.10;;;;;;4954919;28;20482;-69
2021/09/06 01:44:03;;;;;;;7.03;6.53;;;22.30;37.20;;;;;;4955043;28;20249;-70
2021/09/06 01:46:30;;;;;;;8.13;7.40;;;22.20;37.10;;;;;;4955035;28;20214;-69
2021/09/06 01:48:57;;;;;;;7.60;6.80;;;22.30;37.10;;;;;;4954148;28;20415;-69
2021/09/06 01:51:23;;;;;;;7.60;7.03;;;22.30;37.10;;;;;;4954413;28;20928;-69
2021/09/06 01:53:49;;;;;;;7.83;7.23;;;22.20;37.10;;;;;;4954307;28;20415;-69
2021/09/06 01:56:14;;;;;;;7.33;6.73;;;22.20;37.10;;;;;;4954185;28;20837;-70
2021/09/06 01:58:40;;;;;;;7.50;7.00;;;22.20;37.10;;;;;;4953904;28;20187;-69
2021/09/06 02:01:07;;;;;;;7.40;6.80;;;22.20;37.10;;;;;;4954066;28;20222;-68
2021/09/06 02:03:33;;;;;;;7.20;6.60;;;22.20;37.10;;;;;;4954125;28;20552;-68
2021/09/06 02:05:58;;;;;;;7.07;6.47;;;22.20;37.10;;;;;;4954211;28;20407;-69
2021/09/06 02:08:24;;;;;;;6.57;6.07;;;22.20;37.10;;;;;;4953994;28;20259;-69
2021/09/06 02:10:49;;;;;;;7.30;6.80;;;22.20;37.10;;;;;;4953997;28;20199;-69
2021/09/06 02:13:15;;;;;;;7.17;6.47;;;22.20;37.10;;;;;;4954037;28;20181;-69
2021/09/06 02:15:40;;;;;;;7.20;6.60;;;22.20;37.00;;;;;;4953365;28;20213;-69
2021/09/06 02:18:06;;;;;;;8.07;7.37;;;22.20;37.00;;;;;;4953675;28;20186;-68
2021/09/06 02:20:31;;;;;;;6.60;6.10;;;22.20;37.00;;;;;;4953651;28;20191;-68
2021/09/06 02:22:57;;;;;;;7.40;6.90;;;22.20;37.00;;;;;;4953954;28;20654;-69
2021/09/06 02:25:22;;;;;;;7.00;6.50;;;22.20;37.00;;;;;;4953903;28;20702;-68
2021/09/06 02:27:48;;;;;;;7.17;6.60;;;22.20;37.70;;;;;;4953929;28;20178;-68
2021/09/06 02:30:13;;;;;;;6.73;6.23;;;22.20;37.00;;;;;;4953590;28;20719;-69
2021/09/06 02:32:39;;;;;;;7.17;6.60;;;22.20;37.00;;;;;;4953865;28;20250;-69
2021/09/06 02:35:05;;;;;;;7.20;6.60;;;22.20;37.00;;;;;;4953729;28;20187;-68
2021/09/06 02:37:31;;;;;;;7.77;7.10;;;22.10;37.00;;;;;;4953849;28;20186;-69
2021/09/06 02:39:56;;;;;;;7.60;7.07;;;22.20;37.00;;;;;;4953397;28;20434;-68
2021/09/06 02:42:22;;;;;;;7.47;6.87;;;22.20;36.90;;;;;;4953736;28;20183;-68
2021/09/06 02:44:48;;;;;;;7.67;6.97;;;22.20;36.90;;;;;;4953666;28;20342;-69
2021/09/06 02:47:13;;;;;;;8.03;7.43;;;22.20;36.90;;;;;;4953763;28;20223;-68
2021/09/06 02:49:39;;;;;;;6.83;6.33;;;22.10;36.80;;;;;;4953410;28;20191;-69
2021/09/06 02:52:04;;;;;;;7.73;7.03;;;22.20;36.90;;;;;;4953714;28;20175;-69
2021/09/06 02:54:30;;;;;;;7.30;6.70;;;22.20;37.00;;;;;;4953602;28;20175;-69
2021/09/06 02:56:55;;;;;;;7.60;7.03;;;22.20;37.10;;;;;;4953559;28;20286;-70
2021/09/06 02:59:21;;;;;;;7.53;6.93;;;22.20;37.10;;;;;;4953330;28;20729;-69
2021/09/06 03:01:46;;;;;;;7.97;7.37;;;22.20;37.10;;;;;;4953490;28;20694;-68
2021/09/06 03:04:12;;;;;;;6.80;6.30;;;22.20;37.10;;;;;;4953488;28;20178;-69
2021/09/06 03:06:37;;;;;;;7.63;6.87;;;22.20;37.10;;;;;;4953668;28;20214;-68
2021/09/06 03:09:03;;;;;;;8.00;7.20;;;22.10;37.00;;;;;;4953396;28;20175;-69
2021/09/06 03:11:28;;;;;;;7.10;6.40;;;22.10;37.10;;;;;;4953344;28;20203;-69
2021/09/06 03:13:55;;;;;;;7.20;6.70;;;22.10;37.00;;;;;;4953741;28;20634;-69
2021/09/06 03:16:22;;;;;;;6.57;6.17;;;22.20;37.10;;;;;;4953474;28;20261;-69
2021/09/06 03:18:48;;;;;;;8.00;7.40;;;22.20;37.10;;;;;;4953224;28;20407;-69
2021/09/06 03:21:14;;;;;;;8.13;7.33;;;22.10;37.00;;;;;;4953275;28;20439;-68
2021/09/06 03:23:39;;;;;;;6.73;6.23;;;22.20;37.10;;;;;;4953458;28;20629;-68
2021/09/06 03:26:05;;;;;;;6.67;6.17;;;22.10;37.00;;;;;;4953207;28;20180;-69
2021/09/06 03:28:31;;;;;;;7.17;6.57;;;22.10;37.00;;;;;;4955982;28;20180;-69
2021/09/06 03:30:56;;;;;;;8.17;6.80;;;22.10;37.00;;;;;;4956750;28;20282;-69
2021/09/06 03:33:21;;;;;;;7.10;6.60;;;22.10;36.90;;;;;;4956822;28;20231;-69
2021/09/06 03:35:47;;;;;;;8.07;7.47;;;22.10;36.80;;;;;;4956568;28;20230;-68
2021/09/06 03:38:13;;;;;;;6.47;5.97;;;22.10;36.80;;;;;;4956742;28;20262;-69
2021/09/06 03:40:39;;;;;;;7.20;6.60;;;22.10;36.80;;;;;;4956342;28;20238;-69
2021/09/06 03:43:05;;;;;;;7.00;6.50;;;22.20;36.80;;;;;;4956608;28;20447;-69
2021/09/06 03:45:31;;;;;;;7.17;6.67;;;22.10;36.80;;;;;;4956489;28;20649;-68
2021/09/06 03:47:56;;;;;;;7.77;7.27;;;22.10;36.70;;;;;;4956521;28;20411;-67
2021/09/06 03:50:22;;;;;;;7.07;6.57;;;22.10;36.70;;;;;;4956075;28;20283;-68
2021/09/06 03:52:48;;;;;;;7.37;6.53;;;22.10;36.80;;;;;;4956607;28;20262;-68
2021/09/06 03:55:13;;;;;;;7.13;6.53;;;22.10;36.70;;;;;;4956155;28;20191;-68
2021/09/06 03:57:39;;;;;;;7.70;7.10;;;22.10;36.70;;;;;;4956394;28;20250;-68
2021/09/06 04:00:06;;;;;;;6.90;6.30;;;22.10;36.80;;;;;;4955977;28;20203;-67
2021/09/06 04:02:31;;;;;;;6.90;6.40;;;22.10;36.80;;;;;;4956157;28;20164;-68
2021/09/06 04:04:59;;;;;;;6.70;6.10;;;22.10;36.80;;;;;;4956260;28;20411;-68
2021/09/06 04:07:24;;;;;;;7.80;7.17;;;22.10;36.80;;;;;;4956043;28;20168;-67
2021/09/06 04:09:50;;;;;;;7.43;6.83;;;22.10;36.80;;;;;;4955817;28;21918;-68
2021/09/06 04:12:16;;;;;;;6.87;6.27;;;22.10;36.80;;;;;;4956019;28;20213;-70
2021/09/06 04:14:42;;;;;;;7.60;7.00;;;22.10;36.90;;;;;;4956089;28;20184;-68
2021/09/06 04:17:07;;;;;;;6.87;6.37;;;22.10;36.80;;;;;;4955914;28;20207;-68
2021/09/06 04:19:33;;;;;;;7.70;7.10;;;22.10;36.80;;;;;;4955830;28;20894;-69
2021/09/06 04:22:00;;;;;;;7.53;6.93;;;22.10;36.90;;;;;;4955756;28;20179;-68
2021/09/06 04:24:26;;;;;;;8.03;7.27;;;22.10;36.90;;;;;;4955908;28;20167;-65
2021/09/06 04:26:53;;;;;;;7.73;7.13;;;22.10;36.90;;;;;;4955994;28;20426;-68
2021/09/06 04:29:18;;;;;;;8.67;7.40;;;22.10;37.00;;;;;;4955557;28;20417;-69
2021/09/06 04:31:44;;;;;;;8.27;7.63;;;22.10;37.00;;;;;;4955513;28;20815;-72
2021/09/06 04:34:09;;;;;;;7.97;7.00;;;22.10;37.10;;;;;;4955802;28;20176;-67
2021/09/06 04:36:35;;;;;;;7.83;7.13;;;22.10;37.20;;;;;;4955583;28;20658;-70
2021/09/06 04:39:01;;;;;;;8.40;7.67;;;22.10;37.10;;;;;;4954704;28;20548;-67
2021/09/06 04:41:26;;;;;;;7.00;6.50;;;22.10;37.20;;;;;;4955424;28;20247;-70
2021/09/06 04:43:52;;;;;;;7.60;6.60;;;22.10;37.20;;;;;;4955609;28;20203;-67
2021/09/06 04:46:17;;;;;;;7.07;6.47;;;22.10;37.10;;;;;;4955463;28;20238;-69
2021/09/06 04:48:43;;;;;;;8.30;7.70;;;22.10;37.00;;;;;;4955248;28;20212;-71
2021/09/06 04:51:11;;;;;;;7.67;7.07;;;22.10;37.10;;;;;;4955413;28;20669;-68
2021/09/06 04:53:40;;;;;;;7.73;7.13;;;22.10;37.10;;;;;;4953936;28;20649;-69
2021/09/06 04:56:06;;;;;;;7.53;6.83;;;22.10;37.10;;;;;;4955252;28;20876;-68
2021/09/06 04:58:32;;;;;;;6.60;6.10;;;22.10;37.20;;;;;;4955046;28;20451;-69
2021/09/06 05:00:57;;;;;;;7.47;6.80;;;22.10;37.30;;;;;;4954962;28;20451;-68
2021/09/06 05:03:23;;;;;;;7.30;6.70;;;22.10;37.40;;;;;;4954881;28;20171;-68
2021/09/06 05:05:48;;;;;;;7.13;6.53;;;22.10;37.40;;;;;;4953991;28;20242;-68
2021/09/06 05:08:14;;;;;;;7.10;6.60;;;22.00;37.40;;;;;;4954014;28;20176;-68
2021/09/06 05:10:40;;;;;;;7.83;7.20;;;22.10;37.50;;;;;;4954935;28;20211;-68
2021/09/06 05:13:05;;;;;;;7.90;7.23;;;22.10;37.50;;;;;;4954927;28;20415;-68
2021/09/06 05:15:31;;;;;;;8.00;7.30;;;22.00;37.40;;;;;;4954875;28;20207;-67
2021/09/06 05:17:57;;;;;;;7.17;6.57;;;22.00;37.40;;;;;;4963760;28;20179;-68
2021/09/06 05:20:23;;;;;;;9.70;7.17;;;22.00;37.30;;;;;;4974149;28;20186;-68
2021/09/06 05:22:49;;;;;;;8.23;7.43;;;22.10;37.40;;;;;;4973932;28;20179;-68
2021/09/06 05:25:15;;;;;;;8.23;6.20;;;22.10;37.40;;;;;;4974050;28;20411;-68
2021/09/06 05:27:40;;;;;;;7.33;6.70;;;22.10;37.40;;;;;;4974118;28;20425;-68
2021/09/06 05:30:07;;;;;;;8.43;7.40;;;22.00;37.20;;;;;;4973784;28;20195;-68
2021/09/06 05:32:32;;;;;;;6.40;5.90;;;22.10;37.20;;;;;;4973829;28;20177;-69
2021/09/06 05:34:58;;;;;;;7.30;6.80;;;22.00;36.90;;;;;;4973895;28;20829;-69
2021/09/06 05:37:23;;;;;;;8.43;6.70;;;22.00;36.90;;;;;;4973612;28;20545;-68
2021/09/06 05:39:49;;;;;;;9.17;6.90;;;22.10;37.00;;;;;;4973865;28;20181;-69
2021/09/06 05:42:15;;;;;;;7.70;7.00;;;22.00;36.90;;;;;;4973808;28;20606;-68
2021/09/06 05:44:40;;;;;;;10.20;7.90;;;22.00;36.90;;;;;;4973293;28;20500;-69
2021/09/06 05:47:06;;;;;;;7.20;6.60;;;22.00;36.80;;;;;;4972949;28;20170;-68
2021/09/06 05:49:32;;;;;;;7.53;6.93;;;22.00;36.80;;;;;;4973054;28;20187;-68
2021/09/06 05:51:58;;;;;;;8.43;7.73;;;22.00;36.70;;;;;;4973620;28;20410;-69
2021/09/06 05:54:24;;;;;;;8.23;7.40;;;22.00;36.60;;;;;;4973450;28;20210;-68
2021/09/06 05:56:49;;;;;;;7.93;7.33;;;22.00;36.60;;;;;;4973705;28;20214;-68
2021/09/06 05:59:15;;;;;;;8.30;7.57;;;22.00;36.50;;;;;;4973196;28;20920;-69
2021/09/06 06:01:41;;;;;;;7.60;6.90;;;22.00;36.50;;;;;;4973312;28;20261;-68
2021/09/06 06:04:06;;;;;;;7.07;6.47;;;22.00;36.50;;;;;;4973411;28;20551;-68
2021/09/06 06:06:32;;;;;;;7.73;7.10;;;22.00;36.40;;;;;;4973312;28;20908;-68
2021/09/06 06:08:57;;;;;;;7.83;7.10;;;22.00;36.30;;;;;;4973346;28;20185;-67
2021/09/06 06:11:23;;;;;;;7.60;7.00;;;22.00;36.30;;;;;;4973244;28;20195;-67
2021/09/06 06:13:48;;;;;;;8.80;6.97;;;22.00;36.30;;;;;;4973178;28;20182;-68
2021/09/06 06:16:14;;;;;;;7.83;7.23;;;21.90;36.30;;;;;;4973183;28;20199;-68
2021/09/06 06:18:39;;;;;;;9.00;8.20;;;22.00;36.50;;;;;;4972943;28;20171;-67
2021/09/06 06:21:05;;;;;;;8.37;7.50;;;22.00;36.50;;;;;;4973120;28;20198;-67
2021/09/06 06:23:30;;;;;;;8.10;7.33;;;22.00;36.60;;;;;;4973310;28;20179;-68
2021/09/06 06:25:56;;;;;;;7.37;6.60;;;21.90;36.60;;;;;;4973476;28;20242;-69
2021/09/06 06:28:21;;;;;;;7.83;7.20;;;22.00;36.80;;;;;;4973000;28;20178;-68
2021/09/06 06:30:47;;;;;;;9.20;8.00;;;22.00;36.70;;;;;;4973172;28;20646;-68
2021/09/06 06:33:13;;;;;;;8.70;8.00;;;22.00;36.80;;;;;;4972904;28;20171;-68
2021/09/06 06:35:39;;;;;;;9.03;8.17;;;22.00;36.70;;;;;;4969817;28;20496;-68
2021/09/06 06:38:05;;;;;;;8.90;8.17;;;22.00;36.70;;;;;;4951777;29;20579;-68
2021/09/06 06:40:31;;;;;;;9.73;8.83;;;22.00;36.70;;;;;;4953385;28;20191;-67
2021/09/06 06:42:57;;;;;;;13.90;9.20;;;22.00;36.60;;;;;;4953197;28;20511;-68
2021/09/06 06:45:22;;;;;;;11.50;8.87;;;22.00;36.30;;;;;;4953614;29;20182;-69
2021/09/06 06:47:48;;;;;;;9.90;9.00;;;22.00;36.10;;;;;;4953463;28;20652;-67
2021/09/06 06:50:13;;;;;;;12.67;8.63;;;22.00;35.80;;;;;;4953194;28;20191;-68
2021/09/06 06:52:39;;;;;;;9.10;8.30;;;22.00;35.70;;;;;;4953648;28;20187;-68
2021/09/06 06:55:06;;;;;;;9.17;8.27;;;22.00;35.50;;;;;;4953819;28;20538;-68
2021/09/06 06:57:31;;;;;;;10.27;9.17;;;22.00;35.40;;;;;;4953405;28;20817;-68
2021/09/06 06:59:57;;;;;;;10.27;9.20;;;21.90;35.10;;;;;;4953164;28;20441;-67
2021/09/06 07:02:22;;;;;;;9.70;8.90;;;21.90;35.10;;;;;;4953918;28;20187;-67
2021/09/06 07:04:48;;;;;;;11.73;8.80;;;21.90;35.30;;;;;;4957302;28;20183;-68
2021/09/06 07:07:14;;;;;;;10.37;9.33;;;22.00;35.50;;;;;;4955675;29;20226;-68
2021/09/06 07:09:39;;;;;;;10.07;8.37;;;21.90;35.60;;;;;;4956828;29;20272;-68
2021/09/06 07:12:05;;;;;;;9.33;8.20;;;21.90;35.60;;;;;;4957092;29;20175;-67
2021/09/06 07:14:30;;;;;;;11.77;8.20;;;21.90;35.60;;;;;;4957164;28;20194;-68
2021/09/06 07:16:56;;;;;;;9.43;8.53;;;21.90;35.70;;;;;;4956954;29;20211;-68
2021/09/06 07:19:21;;;;;;;11.90;9.20;;;21.90;35.70;;;;;;4956801;29;20176;-68
2021/09/06 07:21:47;;;;;;;9.10;8.30;;;21.90;35.70;;;;;;4956558;28;20203;-68
2021/09/06 07:24:12;;;;;;;9.67;8.17;;;22.00;35.80;;;;;;4956984;29;20203;-68
2021/09/06 07:26:38;;;;;;;9.97;8.93;;;21.90;35.70;;;;;;4956898;29;20187;-68
2021/09/06 07:29:04;;;;;;;11.90;8.93;;;21.90;35.70;;;;;;4956707;29;20634;-68
2021/09/06 07:31:29;;;;;;;9.17;8.37;;;21.90;35.70;;;;;;4956572;28;20203;-68
2021/09/06 07:33:55;;;;;;;9.90;8.90;;;21.90;35.70;;;;;;4956792;28;20638;-67
2021/09/06 07:36:21;;;;;;;9.43;8.63;;;22.00;35.70;;;;;;4956576;28;20205;-67
2021/09/06 07:38:46;;;;;;;9.20;8.23;;;21.90;35.80;;;;;;4956562;29;20171;-68
2021/09/06 07:41:12;;;;;;;9.63;8.63;;;21.90;35.90;;;;;;4956385;28;20532;-69
2021/09/06 07:43:37;;;;;;;10.03;8.63;;;21.90;35.90;;;;;;4956637;29;20222;-68
2021/09/06 07:46:03;;;;;;;11.00;8.07;;;21.90;35.90;;;;;;4956505;28;20190;-67
2021/09/06 07:48:28;;;;;;;9.13;8.30;;;21.90;35.90;;;;;;4956366;28;20175;-68
2021/09/06 07:50:54;;;;;;;9.83;8.93;;;21.90;35.90;;;;;;4956361;28;20196;-68
2021/09/06 07:53:22;;;;;;;10.03;8.80;;;21.90;35.90;;;;;;4956385;29;20171;-68
2021/09/06 07:55:47;;;;;;;9.03;8.13;;;21.90;35.90;;;;;;4956321;28;20191;-68
2021/09/06 07:58:13;;;;;;;9.20;8.37;;;21.90;35.90;;;;;;4956386;28;20426;-68
2021/09/06 08:00:39;;;;;;;9.37;8.57;;;21.90;35.90;;;;;;4956022;28;20217;-68
2021/09/06 08:03:04;;;;;;;7.77;7.20;;;21.90;35.90;;;;;;4956128;28;20666;-68
2021/09/06 08:05:30;;;;;;;9.23;8.40;;;21.90;35.90;;;;;;4956002;29;20171;-68
2021/09/06 08:07:56;;;;;;;8.70;7.93;;;21.90;36.00;;;;;;4956028;28;20297;-68
2021/09/06 08:10:22;;;;;;;9.57;8.60;;;21.90;36.00;;;;;;4955846;28;20202;-67
2021/09/06 08:12:48;;;;;;;9.00;8.20;;;21.90;36.10;;;;;;4956072;29;20407;-68
2021/09/06 08:15:14;;;;;;;9.07;8.27;;;21.90;36.10;;;;;;4954933;28;20414;-68
2021/09/06 08:17:40;;;;;;;8.17;7.57;;;21.90;36.00;;;;;;4955831;29;20617;-68
2021/09/06 08:20:09;;;;;;;8.80;8.10;;;21.90;36.00;;;;;;4955540;28;20649;-68
2021/09/06 08:22:35;;;;;;;9.00;8.20;;;21.90;36.10;;;;;;4955889;28;20898;-68
2021/09/06 08:25:02;;;;;;;10.20;9.30;;;22.00;36.20;;;;;;4955897;28;20415;-68
2021/09/06 08:27:28;;;;;;;8.83;8.03;;;21.90;36.10;;;;;;4955835;28;20560;-68
2021/09/06 08:29:53;;;;;;;9.27;8.53;;;21.90;36.10;;;;;;4954872;28;20454;-68
2021/09/06 08:32:19;;;;;;;8.30;7.60;;;21.90;36.10;;;;;;4955713;28;20187;-68
2021/09/06 08:34:44;;;;;;;11.80;8.77;;;21.90;36.10;;;;;;4955654;28;20610;-67
2021/09/06 08:37:10;;;;;;;9.10;8.40;;;22.00;36.20;;;;;;4970334;28;20213;-67
2021/09/06 08:39:37;;;;;;;9.07;8.30;;;21.90;36.20;;;;;;4955218;28;20183;-67
2021/09/06 08:42:03;;;;;;;9.10;8.30;;;22.00;36.20;;;;;;4955612;28;20171;-67
2021/09/06 08:44:29;;;;;;;9.27;8.30;;;22.00;36.20;;;;;;4955317;28;21140;-67
2021/09/06 08:46:55;;;;;;;9.83;8.93;;;21.90;36.10;;;;;;4955283;28;20419;-67
2021/09/06 08:49:21;;;;;;;8.60;7.90;;;22.00;36.20;;;;;;4955100;28;20176;-67
2021/09/06 08:51:48;;;;;;;9.13;8.43;;;21.90;36.10;;;;;;4955324;28;20295;-67
2021/09/06 08:54:14;;;;;;;8.83;8.03;;;22.00;36.30;;;;;;4955126;28;20415;-67
2021/09/06 08:56:39;;;;;;;9.47;8.63;;;22.00;36.20;;;;;;4955219;28;20453;-68
2021/09/06 08:59:06;;;;;;;9.60;8.77;;;22.10;36.20;;;;;;4954946;28;20419;-68
2021/09/06 09:01:48;;;;;;;9.37;8.53;;;22.10;36.10;;;;;;4955053;28;20207;-68
2021/09/06 09:04:22;;;;;;;8.83;8.07;;;22.20;36.30;;;;;;4954971;28;20437;-67
2021/09/06 09:06:55;;;;;;;8.17;7.47;;;22.20;36.30;;;;;;4955168;28;20470;-68
2021/09/06 09:09:33;;;;;;;7.20;6.63;;;22.30;36.30;;;;;;4954884;28;20910;-67
2021/09/06 09:12:13;;;;;;;8.53;7.93;;;22.30;36.30;;;;;;4954923;28;20415;-68
2021/09/06 09:14:51;;;;;;;7.53;7.00;;;22.40;36.30;;;;;;4954977;28;20486;-68
2021/09/06 09:17:17;;;;;;;8.10;7.40;;;22.50;36.30;;;;;;4954973;28;20803;-69
2021/09/06 09:19:43;;;;;;;9.30;8.40;;;22.50;36.20;;;;;;4954641;28;20423;-69
2021/09/06 09:22:39;;;;;;;8.10;7.50;;;22.50;36.20;;;;;;4954483;28;20421;-68
2021/09/06 09:25:08;;;;;;;9.10;8.30;;;22.60;36.20;;;;;;4941696;28;20424;-68
2021/09/06 09:27:43;;;;;;;8.40;7.80;;;22.60;36.00;;;;;;4954606;28;20514;-68
2021/09/06 09:30:25;;;;;;;8.03;7.33;;;22.70;36.10;;;;;;4954384;28;20963;-68
2021/09/06 09:33:12;;;;;;;8.53;7.63;;;22.70;36.00;;;;;;4954574;28;20413;-68
2021/09/06 09:35:38;;;;;;;9.27;8.53;;;22.70;36.00;;;;;;4954643;28;20980;-68
2021/09/06 09:38:07;;;;;;;9.53;8.60;;;22.80;36.00;;;;;;4954330;28;20426;-68
2021/09/06 09:40:45;;;;;;;7.80;7.20;;;22.80;35.90;;;;;;4954251;28;20507;-68
2021/09/06 09:43:11;;;;;;;9.13;7.87;;;22.90;36.00;;;;;;4954346;28;20403;-68
2021/09/06 09:45:36;;;;;;;7.93;7.33;;;22.90;35.90;;;;;;4954295;29;20434;-67
2021/09/06 09:48:04;;;;;;;8.37;7.60;;;22.90;35.80;;;;;;4954304;28;20226;-67
2021/09/06 09:50:32;;;;;;;9.17;8.37;;;22.90;35.80;;;;;;4954002;28;20721;-69
2021/09/06 09:52:58;;;;;;;8.10;7.50;;;23.00;36.00;;;;;;4954200;28;20485;-68
2021/09/06 09:55:25;;;;;;;8.00;7.30;;;22.90;35.70;;;;;;4954265;28;20910;-68
2021/09/06 09:57:51;;;;;;;7.97;7.27;;;22.90;35.70;;;;;;4953916;28;20179;-67
2021/09/06 10:00:17;;;;;;;8.07;7.47;;;22.90;35.70;;;;;;4953529;28;20443;-68
2021/09/06 10:02:47;;;;;;;7.70;7.10;;;22.90;35.60;;;;;;4954158;28;20437;-67
2021/09/06 10:05:13;;;;;;;8.10;7.27;;;22.90;35.60;;;;;;4954185;28;20191;-68
2021/09/06 10:07:46;;;;;;;7.93;7.33;;;22.90;35.50;;;;;;4953886;28;20431;-67
2021/09/06 10:10:23;;;;;;;8.10;7.50;;;22.90;35.60;;;;;;4953772;28;20454;-67
2021/09/06 10:13:14;;;;;;;8.77;8.07;;;22.90;35.60;;;;;;4954119;28;20422;-68
2021/09/06 10:15:42;;;;;;;8.77;8.07;;;22.80;35.40;;;;;;4954051;28;20826;-68
2021/09/06 10:18:17;;;;;;;8.03;7.33;;;22.90;35.40;;;;;;4953627;28;20431;-68
2021/09/06 10:20:42;;;;;;;8.10;7.50;;;22.90;35.40;;;;;;4953632;28;20517;-68
2021/09/06 10:23:10;;;;;;;8.47;7.87;;;22.90;35.40;;;;;;4953623;29;20509;-68
2021/09/06 10:25:38;;;;;;;9.17;8.47;;;22.90;35.40;;;;;;4953848;28;20183;-68
2021/09/06 10:28:06;;;;;;;7.63;7.03;;;22.90;35.30;;;;;;4953746;28;20414;-68
2021/09/06 10:30:36;;;;;;;9.00;8.30;;;22.90;35.30;;;;;;4953490;28;20429;-67
2021/09/06 10:33:02;;;;;;;7.60;7.10;;;22.90;35.30;;;;;;4953588;28;20414;-68
2021/09/06 10:35:27;;;;;;;8.70;8.00;;;22.90;35.10;;;;;;4953342;28;20407;-68
2021/09/06 10:38:10;;;;;;;9.03;8.13;;;22.90;35.10;;;;;;4955381;28;20445;-67
2021/09/06 10:40:38;;;;;;;7.83;7.23;;;22.90;35.20;;;;;;4957529;28;20481;-68
2021/09/06 10:43:15;;;;;;;8.87;8.17;;;22.90;35.10;;;;;;4957719;28;20411;-68
2021/09/06 10:45:42;;;;;;;9.50;8.60;;;22.90;35.10;;;;;;4957461;28;20457;-68
2021/09/06 10:48:08;;;;;;;9.00;8.30;;;22.90;35.10;;;;;;4957478;28;20419;-68
2021/09/06 10:50:37;;;;;;;9.43;8.70;;;22.90;35.20;;;;;;4956898;28;20442;-68
2021/09/06 10:53:02;;;;;;;9.00;8.20;;;22.90;35.20;;;;;;4956073;28;20423;-67
2021/09/06 10:55:28;;;;;;;8.77;8.10;;;22.90;35.10;;;;;;4955897;28;20543;-68
2021/09/06 10:57:54;;;;;;;9.10;8.33;;;22.90;35.20;;;;;;4956184;28;20569;-69
2021/09/06 11:00:23;;;;;;;8.80;8.20;;;22.90;35.20;;;;;;4955610;28;20483;-68
2021/09/06 11:02:50;;;;;;;8.77;8.07;;;22.90;35.10;;;;;;4956023;28;20183;-68
2021/09/06 11:05:21;;;;;;;9.20;8.50;;;23.00;35.10;;;;;;4955574;28;20450;-69
2021/09/06 11:07:47;;;;;;;9.23;8.33;;;23.00;35.00;;;;;;4955777;28;20430;-68
2021/09/06 11:10:16;;;;;;;8.60;8.00;;;23.00;35.00;;;;;;4955924;28;20573;-68
2021/09/06 11:12:59;;;;;;;9.47;8.67;;;23.00;35.10;;;;;;4956974;28;20430;-68
2021/09/06 11:15:29;;;;;;;9.00;8.30;;;23.00;34.80;;;;;;4957055;28;20421;-68
2021/09/06 11:18:05;;;;;;;9.13;8.23;;;22.90;34.50;;;;;;4957082;28;20461;-68
2021/09/06 11:20:34;;;;;;;9.33;8.43;;;23.00;34.60;;;;;;4956910;28;20433;-68
2021/09/06 11:23:08;;;;;;;9.27;8.47;;;23.00;34.60;;;;;;4956935;28;20426;-68
2021/09/06 11:25:35;;;;;;;9.03;8.27;;;23.00;34.40;;;;;;4956801;28;20925;-68
2021/09/06 11:28:12;;;;;;;13.73;9.03;;;23.00;34.40;;;;;;4956940;28;20411;-68
2021/09/06 11:30:41;;;;;;;8.40;7.80;;;23.00;34.20;;;;;;4956573;28;20440;-68
2021/09/06 11:33:10;;;;;;;8.70;8.00;;;23.00;34.20;;;;;;4956797;28;20450;-68
2021/09/06 11:35:43;;;;;;;7.77;7.17;;;23.00;34.00;;;;;;4956571;28;20421;-69
2021/09/06 11:38:11;;;;;;;8.10;7.40;;;23.00;33.60;;;;;;4956518;28;20763;-68
2021/09/06 11:40:38;;;;;;;8.60;7.97;;;23.00;33.40;;;;;;4956608;28;20439;-70
2021/09/06 11:43:05;;;;;;;9.13;8.30;;;23.00;33.30;;;;;;4956512;28;20506;-69
2021/09/06 11:45:31;;;;;;;8.20;7.50;;;23.00;33.30;;;;;;4956372;28;20446;-68
2021/09/06 11:48:06;;;;;;;7.90;6.93;;;23.00;33.20;;;;;;4956138;28;20478;-68
2021/09/06 11:50:35;;;;;;;8.77;8.13;;;23.00;33.00;;;;;;4956088;28;20442;-68
2021/09/06 11:53:04;;;;;;;8.63;7.93;;;23.00;33.10;;;;;;4956328;28;20414;-68
2021/09/06 11:55:30;;;;;;;8.40;7.60;;;23.00;32.90;;;;;;4956295;28;20426;-68
2021/09/06 11:58:12;;;;;;;8.20;7.60;;;23.00;32.90;;;;;;4956446;28;20459;-68
2021/09/06 12:00:40;;;;;;;8.60;7.93;;;23.00;32.60;;;;;;4956202;28;20969;-69
2021/09/06 12:03:08;;;;;;;8.63;7.83;;;23.00;32.50;;;;;;4956015;28;20454;-68
2021/09/06 12:05:48;;;;;;;8.20;7.60;;;23.00;32.50;;;;;;4956178;28;20458;-68
2021/09/06 12:08:15;;;;;;;8.00;7.33;;;23.00;32.50;;;;;;4956126;28;20426;-68
2021/09/06 12:10:45;;;;;;;8.30;7.70;;;23.00;32.50;;;;;;4955420;28;20462;-68
2021/09/06 12:13:18;;;;;;;7.60;7.07;;;23.00;32.50;;;;;;4955977;28;20467;-67
2021/09/06 12:16:00;;;;;;;8.23;7.53;;;23.00;32.50;;;;;;4955951;28;20849;-68
2021/09/06 12:18:38;;;;;;;7.53;6.80;;;23.00;32.30;;;;;;4955766;28;20415;-67
2021/09/06 12:21:06;;;;;;;8.20;7.60;;;23.00;32.50;;;;;;4955993;28;20473;-68
2021/09/06 12:23:37;;;;;;;8.40;7.70;;;23.00;32.50;;;;;;4955800;28;20411;-68
2021/09/06 12:26:03;;;;;;;9.20;8.50;;;23.00;32.50;;;;;;4955920;28;20844;-67
2021/09/06 12:28:29;;;;;;;8.80;8.10;;;23.00;32.50;;;;;;4955762;28;20780;-67
2021/09/06 12:31:05;;;;;;;8.23;7.63;;;23.00;32.50;;;;;;4955676;28;20443;-70
2021/09/06 12:33:31;;;;;;;8.30;7.70;;;23.00;32.50;;;;;;4955680;28;20642;-67
2021/09/06 12:36:01;;;;;;;8.23;7.63;;;23.00;32.50;;;;;;4955445;28;20463;-68
2021/09/06 12:38:26;;;;;;;8.27;7.67;;;23.00;32.50;;;;;;4955354;28;20419;-68
2021/09/06 12:40:52;;;;;;;7.60;7.10;;;23.00;32.50;;;;;;4955488;29;20438;-67
2021/09/06 12:43:18;;;;;;;8.80;8.10;;;23.10;33.30;;;;;;4955494;29;20662;-67
2021/09/06 12:45:43;;;;;;;8.03;7.33;;;23.10;32.40;;;;;;4955537;29;20191;-68